Time;durP1;ratioP1;P1;durP2;ratioP2;P2;SDS_P1;SDS_P2;PMS_P1;PMS_P2;Temp;Humidity;BMP_temperature;BMP_pressure;BME280_temperature;BME280_humidity;BME280_pressure;Samples;Min_cycle;Max_cycle;Signal;HPM_P1;HPM_P2
2021/11/15 00:01:16;;;;;;;0.10;0.10;;;;;;;12.88;63.43;102840.19;5057160;28;20025;-86
2021/11/15 00:03:44;;;;;;;0.32;0.32;;;;;;;12.85;63.74;102838.41;5057754;28;20036;-86
2021/11/15 00:06:10;;;;;;;0.20;0.20;;;;;;;12.84;63.41;102839.28;5057555;28;20025;-86
2021/11/15 00:08:37;;;;;;;0.30;0.30;;;;;;;12.86;63.57;102836.63;5057293;28;20021;-86
2021/11/15 00:11:04;;;;;;;0.28;0.17;;;;;;;12.86;64.05;102837.53;5057217;28;20029;-85
2021/11/15 00:13:30;;;;;;;0.20;0.20;;;;;;;12.86;64.51;102825.97;5057147;28;20427;-87
2021/11/15 00:15:56;;;;;;;1.38;0.95;;;;;;;12.86;63.82;102826.88;5057358;28;20032;-86
2021/11/15 00:18:22;;;;;;;0.10;0.10;;;;;;;12.89;64.10;102832.19;5057331;28;20029;-86
2021/11/15 00:20:49;;;;;;;0.10;0.10;;;;;;;12.88;64.38;102835.72;5057279;28;20114;-86
2021/11/15 00:23:15;;;;;;;0.13;0.13;;;;;;;12.85;64.01;102825.09;5056658;28;20116;-85
2021/11/15 00:25:41;;;;;;;0.65;0.65;;;;;;;12.85;63.60;102834.88;5056760;28;20102;-86
2021/11/15 00:28:07;;;;;;;0.90;0.77;;;;;;;12.85;63.69;102829.53;5056760;28;20539;-85
2021/11/15 00:30:33;;;;;;;0.10;0.10;;;;;;;12.84;63.67;102833.09;5057150;28;20037;-86
2021/11/15 00:33:00;;;;;;;0.47;0.47;;;;;;;12.85;63.56;102827.75;5057236;28;20033;-86
2021/11/15 00:35:26;;;;;;;0.10;0.10;;;;;;;12.89;63.89;102831.31;5058102;28;20148;-86
2021/11/15 00:37:52;;;;;;;0.20;0.20;;;;;;;12.90;64.45;102826.00;5058208;28;20029;-86
2021/11/15 00:40:19;;;;;;;0.20;0.20;;;;;;;12.89;64.46;102829.53;5058214;28;20040;-86
2021/11/15 00:42:46;;;;;;;2.00;0.82;;;;;;;12.89;64.13;102821.56;5058672;28;20496;-86
2021/11/15 00:45:14;;;;;;;0.40;0.40;;;;;;;12.89;63.69;102829.53;5057269;28;20025;-86
2021/11/15 00:47:41;;;;;;;7.68;1.85;;;;;;;12.87;64.00;102822.44;5057783;28;20029;-86
2021/11/15 00:50:11;;;;;;;0.38;0.38;;;;;;;12.88;64.15;102824.22;5056377;28;20029;-86
2021/11/15 00:52:38;;;;;;;0.10;0.10;;;;;;;12.83;63.54;102825.97;5056716;28;20384;-86
2021/11/15 00:55:05;;;;;;;0.30;0.30;;;;;;;12.82;63.99;102827.72;5057091;28;20112;-86
2021/11/15 00:57:31;;;;;;;0.10;0.10;;;;;;;12.76;63.47;102825.06;5058061;28;20098;-86
2021/11/15 00:59:57;;;;;;;0.10;0.10;;;;;;;12.71;62.55;102825.06;5056190;28;20033;-85
2021/11/15 01:02:24;;;;;;;0.45;0.45;;;;;;;12.70;63.16;102827.72;5057161;28;20363;-86
2021/11/15 01:04:50;;;;;;;0.60;0.60;;;;;;;12.73;63.22;102833.06;5057344;28;20036;-85
2021/11/15 01:07:17;;;;;;;0.20;0.20;;;;;;;12.70;62.30;102835.72;5057534;28;20494;-86
2021/11/15 01:09:44;;;;;;;0.90;0.90;;;;;;;12.35;63.75;102828.47;5057243;28;20033;-85
2021/11/15 01:12:11;;;;;;;1.55;0.88;;;;;;;12.27;64.00;102829.34;5057577;28;20029;-85
2021/11/15 01:14:40;;;;;;;2.45;1.00;;;;;;;12.22;64.40;102828.41;5057183;28;20519;-84
2021/11/15 01:17:06;;;;;;;0.50;0.50;;;;;;;12.19;64.40;102833.72;5056886;28;20106;-86
2021/11/15 01:19:39;;;;;;;1.17;1.17;;;;;;;12.18;64.57;102825.75;5056589;28;20043;-83
2021/11/15 01:22:05;;;;;;;0.32;0.32;;;;;;;12.21;64.61;102829.31;5056632;28;20060;-86
2021/11/15 01:24:32;;;;;;;0.20;0.20;;;;;;;12.21;64.36;102831.06;5057201;28;20040;-87
2021/11/15 01:26:59;;;;;;;0.80;0.80;;;;;;;12.22;64.70;102825.75;5056189;28;20448;-86
2021/11/15 01:29:25;;;;;;;1.23;0.95;;;;;;;12.21;64.54;102821.34;5057149;28;20036;-85
2021/11/15 01:31:56;;;;;;;2.05;1.95;;;;;;;12.24;64.62;102820.47;5056652;28;20033;-87
2021/11/15 01:34:24;;;;;;;0.85;0.85;;;;;;;12.23;64.65;102819.56;5056670;28;20132;-86
2021/11/15 01:36:54;;;;;;;0.63;0.63;;;;;;;12.24;64.66;102810.72;5055832;28;20083;-87
2021/11/15 01:39:23;;;;;;;0.32;0.32;;;;;;;12.23;64.94;102813.38;5056207;28;20029;-87
2021/11/15 01:41:50;;;;;;;0.10;0.10;;;;;;;12.24;65.08;102804.53;5056885;28;20047;-86
2021/11/15 01:44:16;;;;;;;0.38;0.38;;;;;;;12.22;64.93;102804.47;5056194;28;20116;-85
2021/11/15 01:46:43;;;;;;;0.55;0.55;;;;;;;12.21;64.90;102800.06;5057592;28;20120;-85
2021/11/15 01:49:10;;;;;;;2.05;0.73;;;;;;;12.14;64.46;102793.81;5055745;28;20044;-85
2021/11/15 01:51:36;;;;;;;0.82;0.82;;;;;;;12.13;64.28;102801.81;5055401;28;20025;-85
2021/11/15 01:54:03;;;;;;;0.20;0.20;;;;;;;12.11;64.91;102798.22;5056103;28;20033;-85
2021/11/15 01:56:29;;;;;;;1.05;1.00;;;;;;;12.12;64.81;102800.00;5056491;28;20111;-85
2021/11/15 01:58:56;;;;;;;0.30;0.30;;;;;;;12.11;64.65;102806.22;5055008;28;20392;-85
2021/11/15 02:01:24;;;;;;;0.20;0.20;;;;;;;12.15;64.61;102802.72;5055853;28;20025;-86
2021/11/15 02:03:51;;;;;;;0.22;0.22;;;;;;;12.14;64.52;102803.59;5055189;28;20027;-86
2021/11/15 02:06:25;;;;;;;0.17;0.17;;;;;;;12.13;64.35;102801.81;5055989;28;20029;-86
2021/11/15 02:08:52;;;;;;;0.10;0.10;;;;;;;12.15;64.60;102805.38;5052189;28;20072;-85
2021/11/15 02:11:19;;;;;;;0.10;0.10;;;;;;;12.18;64.82;102805.38;5054041;28;20025;-85
2021/11/15 02:13:46;;;;;;;0.15;0.15;;;;;;;12.17;64.82;102803.56;5053824;28;20040;-85
2021/11/15 02:16:13;;;;;;;0.10;0.10;;;;;;;12.17;64.74;102798.25;5054532;28;20036;-83
2021/11/15 02:18:40;;;;;;;1.30;1.20;;;;;;;12.17;65.23;102798.25;5056691;28;20056;-85
2021/11/15 02:21:08;;;;;;;0.10;0.10;;;;;;;12.17;65.18;102792.94;5032254;28;20029;-86
2021/11/15 02:23:38;;;;;;;0.10;0.10;;;;;;;12.43;64.21;102806.34;5051684;28;20029;-83
2021/11/15 02:26:07;;;;;;;0.10;0.10;;;;;;;12.25;64.85;102801.84;5053465;28;20048;-85
2021/11/15 02:28:38;;;;;;;0.52;0.35;;;;;;;12.19;64.98;102796.50;5055714;28;20033;-84
2021/11/15 02:31:07;;;;;;;0.10;0.10;;;;;;;12.14;64.52;102799.13;5053015;28;20025;-85
2021/11/15 02:33:34;;;;;;;0.13;0.13;;;;;;;12.13;64.79;102801.81;5051298;28;20033;-85
2021/11/15 02:36:02;;;;;;;0.38;0.38;;;;;;;12.14;65.29;102798.25;5053746;28;20029;-85
2021/11/15 02:38:29;;;;;;;0.82;0.82;;;;;;;12.12;65.88;102797.34;5052946;28;20547;-85
2021/11/15 02:40:55;;;;;;;0.20;0.20;;;;;;;12.38;64.95;102796.59;5053667;28;20080;-84
2021/11/15 02:43:22;;;;;;;0.63;0.55;;;;;;;12.50;63.96;102796.63;5053104;28;20032;-86
2021/11/15 02:45:50;;;;;;;0.50;0.50;;;;;;;12.53;63.90;102796.63;5052079;28;20116;-84
2021/11/15 02:48:22;;;;;;;0.15;0.15;;;;;;;12.57;63.53;102798.44;5053552;28;20380;-84
2021/11/15 02:50:48;;;;;;;1.52;1.45;;;;;;;12.53;63.26;102799.28;5050466;28;20024;-84
2021/11/15 02:53:35;;;;;;;0.20;0.20;;;;;;;12.57;63.17;102792.22;5053654;28;20032;-83
2021/11/15 02:56:04;;;;;;;0.28;0.28;;;;;;;12.50;62.77;102788.66;5052608;28;20143;-84
2021/11/15 02:58:32;;;;;;;0.10;0.10;;;;;;;12.47;63.18;102785.97;5054479;28;20107;-85
2021/11/15 03:01:05;;;;;;;0.68;0.68;;;;;;;12.49;63.28;102786.88;5053768;28;20115;-85
2021/11/15 03:03:34;;;;;;;0.10;0.10;;;;;;;12.50;62.84;102783.34;5057192;28;20138;-85
2021/11/15 03:06:06;;;;;;;0.10;0.10;;;;;;;12.52;63.44;102786.88;5057714;28;20056;-83
2021/11/15 03:08:35;;;;;;;1.08;1.08;;;;;;;12.50;63.50;102786.00;5059898;28;20056;-86
2021/11/15 03:11:06;;;;;;;0.10;0.10;;;;;;;12.52;63.60;102786.00;5056043;28;20365;-85
2021/11/15 03:13:43;;;;;;;0.10;0.10;;;;;;;12.52;63.43;102786.00;5056753;28;20120;-86
2021/11/15 03:16:11;;;;;;;0.73;0.73;;;;;;;12.41;62.96;102793.94;5056110;28;20102;-86
2021/11/15 03:18:40;;;;;;;0.95;0.65;;;;;;;12.40;62.70;102790.41;5052790;28;20033;-85
2021/11/15 03:21:12;;;;;;;0.10;0.10;;;;;;;12.41;62.40;102792.19;5051560;28;20032;-86
2021/11/15 03:23:42;;;;;;;0.15;0.15;;;;;;;12.41;62.76;102796.59;5052569;28;20112;-86
2021/11/15 03:26:09;;;;;;;0.20;0.20;;;;;;;12.41;63.19;102793.94;5050367;28;20120;-86
2021/11/15 03:28:38;;;;;;;0.10;0.10;;;;;;;12.44;63.02;102796.63;5053252;28;20391;-85
2021/11/15 03:31:09;;;;;;;0.10;0.10;;;;;;;12.44;62.94;102796.63;5051887;28;20486;-86
2021/11/15 03:33:37;;;;;;;2.38;0.90;;;;;;;12.45;63.23;102798.41;5050517;28;20033;-85
2021/11/15 03:36:04;;;;;;;0.20;0.20;;;;;;;12.43;63.06;102795.72;5052235;28;20075;-85
2021/11/15 03:38:30;;;;;;;0.10;0.10;;;;;;;12.45;63.45;102791.31;5051908;28;20047;-85
2021/11/15 03:40:57;;;;;;;0.10;0.10;;;;;;;12.44;62.89;102791.31;5052764;28;20041;-85
2021/11/15 03:43:24;;;;;;;0.40;0.40;;;;;;;12.42;63.26;102795.72;5052890;28;20075;-85
2021/11/15 03:45:50;;;;;;;0.15;0.15;;;;;;;12.38;62.95;102793.94;5052639;28;20061;-85
2021/11/15 03:48:16;;;;;;;0.30;0.30;;;;;;;12.37;62.96;102792.16;5052464;28;20036;-85
2021/11/15 03:50:42;;;;;;;0.10;0.10;;;;;;;12.27;63.02;102784.16;5050959;28;20033;-85
2021/11/15 03:53:11;;;;;;;0.13;0.13;;;;;;;12.33;62.80;102787.72;5052379;28;20029;-85
2021/11/15 03:55:38;;;;;;;2.03;0.80;;;;;;;12.30;63.20;102792.13;5052435;28;20384;-85
2021/11/15 03:58:06;;;;;;;0.10;0.10;;;;;;;12.29;62.75;102793.00;5051130;28;20045;-86
2021/11/15 04:00:36;;;;;;;0.25;0.25;;;;;;;12.27;62.86;102788.56;5051537;28;20037;-84
2021/11/15 04:03:08;;;;;;;0.10;0.10;;;;;;;12.26;63.01;102794.75;5051327;28;20491;-85
2021/11/15 04:05:38;;;;;;;0.20;0.20;;;;;;;12.23;61.93;102797.41;5052167;28;20033;-84
2021/11/15 04:08:06;;;;;;;0.10;0.10;;;;;;;12.22;62.64;102799.16;5050693;28;20045;-85
2021/11/15 04:10:36;;;;;;;1.45;1.23;;;;;;;12.23;62.01;102800.94;5051763;28;20037;-85
2021/11/15 04:13:09;;;;;;;0.08;0.08;;;;;;;12.27;62.66;102800.09;5050077;28;20029;-85
2021/11/15 04:15:36;;;;;;;0.63;0.63;;;;;;;12.26;62.91;102802.72;5051406;28;20037;-86
2021/11/15 04:18:05;;;;;;;0.10;0.10;;;;;;;12.26;62.55;102795.66;5051034;28;20025;-85
2021/11/15 04:20:31;;;;;;;0.22;0.22;;;;;;;12.25;63.04;102793.88;5051771;28;20034;-85
2021/11/15 04:22:58;;;;;;;0.80;0.80;;;;;;;12.20;62.25;102792.97;5050420;28;20025;-86
2021/11/15 04:25:24;;;;;;;0.10;0.10;;;;;;;12.21;62.22;102793.84;5052341;28;20029;-86
2021/11/15 04:27:53;;;;;;;0.10;0.10;;;;;;;12.22;62.43;102795.63;5051927;28;20052;-85
2021/11/15 04:30:20;;;;;;;0.32;0.32;;;;;;;12.22;62.65;102800.94;5052961;28;20480;-85
2021/11/15 04:32:46;;;;;;;0.10;0.10;;;;;;;12.23;62.82;102802.72;5051753;28;20396;-85
2021/11/15 04:35:18;;;;;;;1.60;0.85;;;;;;;12.21;62.66;102805.41;5055278;28;20041;-84
2021/11/15 04:37:48;;;;;;;0.37;0.37;;;;;;;12.19;62.00;102808.94;5055581;28;20029;-83
2021/11/15 04:40:15;;;;;;;0.10;0.10;;;;;;;12.16;62.35;102812.44;5055635;28;20673;-86
2021/11/15 04:42:42;;;;;;;2.17;1.60;;;;;;;12.18;62.44;102808.03;5055219;28;20025;-86
2021/11/15 04:45:09;;;;;;;0.10;0.10;;;;;;;12.17;62.57;102803.56;5055879;28;20021;-85
2021/11/15 04:47:35;;;;;;;0.10;0.10;;;;;;;12.18;63.07;102799.16;5055754;28;20060;-85
2021/11/15 04:50:02;;;;;;;0.10;0.10;;;;;;;12.16;63.11;102803.59;5055116;28;20028;-86
2021/11/15 04:52:29;;;;;;;0.50;0.50;;;;;;;12.14;62.57;102800.94;5055620;28;20033;-86
2021/11/15 04:54:56;;;;;;;0.10;0.10;;;;;;;12.15;62.72;102800.06;5054675;28;20021;-85
2021/11/15 04:57:24;;;;;;;0.10;0.10;;;;;;;12.06;62.17;102802.66;5055451;28;20021;-84
2021/11/15 04:59:50;;;;;;;0.20;0.20;;;;;;;12.02;62.47;102806.16;5054774;28;20128;-86
2021/11/15 05:02:17;;;;;;;0.10;0.10;;;;;;;11.97;62.47;102801.72;5056072;28;20040;-86
2021/11/15 05:04:43;;;;;;;0.20;0.20;;;;;;;11.99;62.72;102799.06;5054409;28;20033;-85
2021/11/15 05:07:09;;;;;;;0.15;0.15;;;;;;;12.02;62.93;102798.19;5053662;28;20041;-86
2021/11/15 05:09:35;;;;;;;0.10;0.10;;;;;;;12.01;63.27;102799.06;5054809;28;20032;-84
2021/11/15 05:12:04;;;;;;;0.10;0.10;;;;;;;12.07;62.86;102810.63;5054862;28;20569;-85
2021/11/15 05:14:30;;;;;;;0.52;0.50;;;;;;;12.07;62.67;102810.63;5053530;28;20102;-86
2021/11/15 05:16:56;;;;;;;0.40;0.40;;;;;;;12.10;63.19;102815.06;5053629;28;20392;-85
2021/11/15 05:19:22;;;;;;;0.10;0.10;;;;;;;12.09;62.92;102806.22;5053314;28;20047;-84
2021/11/15 05:21:49;;;;;;;0.10;0.10;;;;;;;12.09;62.74;102800.03;5054431;28;20033;-86
2021/11/15 05:24:15;;;;;;;0.30;0.30;;;;;;;12.09;62.56;102800.03;5054056;28;20029;-84
2021/11/15 05:26:41;;;;;;;0.10;0.10;;;;;;;12.08;63.04;102795.56;5050451;28;20480;-86
2021/11/15 05:29:07;;;;;;;0.20;0.20;;;;;;;12.09;62.95;102800.91;5055231;28;20040;-86
2021/11/15 05:31:34;;;;;;;0.15;0.15;;;;;;;12.05;63.02;102795.53;5054427;28;20029;-85
2021/11/15 05:34:02;;;;;;;0.10;0.10;;;;;;;12.06;62.77;102799.97;5054989;28;20033;-84
2021/11/15 05:36:28;;;;;;;0.15;0.15;;;;;;;12.05;62.95;102799.13;5054808;28;20036;-84
2021/11/15 05:38:54;;;;;;;0.10;0.10;;;;;;;12.03;63.38;102799.97;5054620;28;20091;-85
2021/11/15 05:41:21;;;;;;;0.30;0.30;;;;;;;12.09;63.61;102808.00;5054582;28;20036;-85
2021/11/15 05:43:47;;;;;;;0.10;0.10;;;;;;;12.02;63.29;102798.19;5054722;28;20103;-85
2021/11/15 05:46:13;;;;;;;0.52;0.52;;;;;;;12.04;63.01;102801.78;5054826;28;20059;-85
2021/11/15 05:48:39;;;;;;;0.13;0.13;;;;;;;12.02;63.39;102801.72;5054267;28;20053;-85
2021/11/15 05:51:05;;;;;;;0.20;0.20;;;;;;;12.00;62.92;102805.25;5054497;28;20032;-84
2021/11/15 05:53:32;;;;;;;0.10;0.10;;;;;;;12.01;63.18;102810.56;5053619;28;20051;-85
2021/11/15 05:55:58;;;;;;;0.10;0.10;;;;;;;12.02;63.52;102808.81;5054632;28;20037;-85
2021/11/15 05:58:24;;;;;;;2.70;0.73;;;;;;;12.02;62.91;102811.47;5053173;28;20033;-85
2021/11/15 06:00:50;;;;;;;0.20;0.20;;;;;;;11.98;62.59;102819.41;5053437;28;20056;-85
2021/11/15 06:03:16;;;;;;;0.10;0.10;;;;;;;11.98;62.95;102819.41;5052507;28;20480;-86
2021/11/15 06:05:42;;;;;;;0.10;0.10;;;;;;;12.00;63.30;102821.19;5053753;28;20033;-84
2021/11/15 06:08:09;;;;;;;0.10;0.10;;;;;;;12.00;63.08;102816.78;5052778;28;20033;-85
2021/11/15 06:10:35;;;;;;;0.30;0.30;;;;;;;12.04;62.96;102809.75;5052764;28;20059;-85
2021/11/15 06:13:01;;;;;;;0.10;0.10;;;;;;;12.04;63.66;102812.41;5052372;28;20084;-85
2021/11/15 06:15:27;;;;;;;0.20;0.20;;;;;;;12.07;63.04;102817.72;5052288;28;20028;-84
2021/11/15 06:17:53;;;;;;;0.20;0.20;;;;;;;12.05;62.80;102824.78;5051142;28;20033;-83
2021/11/15 06:20:20;;;;;;;0.20;0.20;;;;;;;12.01;62.70;102817.66;5052756;28;20037;-84
2021/11/15 06:22:46;;;;;;;0.10;0.10;;;;;;;11.92;62.22;102823.78;5052178;28;20037;-84
2021/11/15 06:25:15;;;;;;;0.10;0.10;;;;;;;11.94;62.29;102827.34;5053367;28;21362;-83
2021/11/15 06:27:42;;;;;;;0.10;0.10;;;;;;;11.82;62.12;102828.16;5052273;28;20059;-83
2021/11/15 06:30:11;;;;;;;0.35;0.35;;;;;;;11.85;62.87;102828.19;5052775;28;20044;-86
2021/11/15 06:32:38;;;;;;;1.77;1.65;;;;;;;11.77;62.86;102827.22;5053100;28;20028;-86
2021/11/15 06:35:05;;;;;;;0.20;0.20;;;;;;;11.80;62.85;102829.88;5049086;28;20038;-85
2021/11/15 06:37:31;;;;;;;0.10;0.10;;;;;;;11.78;62.71;102826.34;5052400;28;20071;-85
2021/11/15 06:39:57;;;;;;;0.28;0.28;;;;;;;11.79;63.00;102826.38;5051397;28;20136;-84
2021/11/15 06:42:23;;;;;;;1.27;1.20;;;;;;;11.81;62.54;102826.38;5049360;28;20127;-86
2021/11/15 06:44:50;;;;;;;0.10;0.10;;;;;;;11.82;63.16;102833.47;5050216;28;20067;-85
2021/11/15 06:47:16;;;;;;;0.15;0.15;;;;;;;11.84;62.78;102831.72;5049382;28;20124;-85
2021/11/15 06:49:42;;;;;;;0.20;0.20;;;;;;;11.87;62.76;102830.84;5051611;28;20085;-86
2021/11/15 06:52:08;;;;;;;0.10;0.10;;;;;;;11.89;63.06;102829.09;5051796;28;20033;-85
2021/11/15 06:54:34;;;;;;;0.10;0.10;;;;;;;11.90;63.35;102829.09;5051795;28;20033;-86
2021/11/15 06:57:00;;;;;;;0.10;0.10;;;;;;;11.87;63.15;102834.38;5051420;28;20032;-84
2021/11/15 06:59:27;;;;;;;0.22;0.22;;;;;;;11.93;63.62;102829.09;5051495;28;20074;-85
2021/11/15 07:01:53;;;;;;;0.10;0.10;;;;;;;11.92;63.27;102829.97;5051339;28;20045;-85
2021/11/15 07:04:19;;;;;;;0.30;0.30;;;;;;;11.93;62.83;102830.88;5050784;28;20083;-85
2021/11/15 07:06:45;;;;;;;1.15;1.13;;;;;;;11.93;63.26;102829.09;5050430;28;20025;-85
2021/11/15 07:09:12;;;;;;;4.38;0.60;;;;;;;11.91;63.06;102830.88;5050381;28;20107;-86
2021/11/15 07:11:38;;;;;;;0.10;0.10;;;;;;;11.94;63.27;102830.88;5052635;28;20025;-83
2021/11/15 07:14:05;;;;;;;0.40;0.40;;;;;;;11.96;63.18;102834.47;5049330;28;20033;-84
2021/11/15 07:16:32;;;;;;;0.15;0.15;;;;;;;11.97;63.07;102838.94;5056253;28;20029;-85
2021/11/15 07:18:58;;;;;;;0.10;0.10;;;;;;;11.97;63.17;102845.97;5051883;28;20411;-84
2021/11/15 07:21:25;;;;;;;0.20;0.20;;;;;;;11.97;63.07;102841.59;5052338;28;20035;-85
2021/11/15 07:23:52;;;;;;;0.25;0.25;;;;;;;11.98;63.41;102851.31;5052621;28;20093;-84
2021/11/15 07:26:19;;;;;;;0.20;0.20;;;;;;;11.97;62.73;102854.88;5053128;28;20104;-84
2021/11/15 07:28:45;;;;;;;0.93;0.93;;;;;;;11.96;63.06;102847.78;5035830;28;20124;-84
2021/11/15 07:31:12;;;;;;;0.35;0.35;;;;;;;11.97;63.08;102838.94;5052263;28;20424;-84
2021/11/15 07:33:39;;;;;;;1.70;1.65;;;;;;;11.96;63.42;102836.22;5052105;28;20085;-84
2021/11/15 07:36:05;;;;;;;0.10;0.10;;;;;;;11.97;63.17;102840.66;5052269;28;20032;-84
2021/11/15 07:38:31;;;;;;;0.20;0.20;;;;;;;11.96;62.75;102837.13;5047598;28;20029;-84
2021/11/15 07:40:57;;;;;;;0.10;0.10;;;;;;;11.94;62.98;102844.16;5052082;28;20036;-84
2021/11/15 07:43:24;;;;;;;3.13;2.72;;;;;;;11.93;63.19;102841.50;5052507;28;20403;-84
2021/11/15 07:45:50;;;;;;;0.38;0.38;;;;;;;11.90;62.37;102852.09;5049111;28;20107;-83
2021/11/15 07:48:16;;;;;;;0.10;0.10;;;;;;;11.85;62.24;102849.44;5045121;28;20368;-84
2021/11/15 07:50:44;;;;;;;1.52;1.42;;;;;;;11.86;62.36;102851.19;5050290;28;20449;-84
2021/11/15 07:53:10;;;;;;;0.05;0.05;;;;;;;11.84;62.39;102862.69;5032232;28;20025;-85
2021/11/15 07:55:37;;;;;;;0.22;0.22;;;;;;;11.84;62.81;102860.94;5050268;28;20086;-84
2021/11/15 07:58:04;;;;;;;1.05;1.05;;;;;;;11.82;62.50;102862.69;5049983;28;20087;-82
2021/11/15 08:00:32;;;;;;;0.28;0.28;;;;;;;11.83;62.77;102845.88;5047940;28;20029;-83
2021/11/15 08:02:58;;;;;;;0.20;0.20;;;;;;;11.82;62.67;102846.75;5050607;28;20098;-83
2021/11/15 08:05:24;;;;;;;0.10;0.10;;;;;;;11.84;62.99;102852.06;5051778;28;20495;-83
2021/11/15 08:07:51;;;;;;;0.10;0.10;;;;;;;11.87;62.97;102852.09;5051523;28;20457;-84
2021/11/15 08:10:19;;;;;;;0.15;0.15;;;;;;;11.86;62.84;102850.31;5054833;28;20029;-84
2021/11/15 08:12:48;;;;;;;0.20;0.20;;;;;;;11.89;63.42;102856.53;5055684;28;20365;-87
2021/11/15 08:15:16;;;;;;;0.40;0.40;;;;;;;11.87;62.92;102852.97;5056519;28;20070;-84
2021/11/15 08:17:45;;;;;;;0.45;0.45;;;;;;;11.89;62.58;102845.91;5055107;28;20492;-85
2021/11/15 08:20:15;;;;;;;0.43;0.43;;;;;;;11.89;62.68;102851.22;5053749;28;20028;-83
2021/11/15 08:22:47;;;;;;;0.17;0.17;;;;;;;11.86;62.86;102845.00;5052954;28;20037;-84
2021/11/15 08:25:53;;;;;;;0.50;0.50;;;;;;;11.94;62.41;102843.28;5054565;28;20404;-84
2021/11/15 08:28:20;;;;;;;0.17;0.17;;;;;;;11.88;63.11;102845.91;5055729;28;20029;-85
2021/11/15 08:30:46;;;;;;;2.08;0.57;;;;;;;11.87;62.61;102850.31;5055648;28;20036;-86
2021/11/15 08:33:13;;;;;;;0.50;0.50;;;;;;;11.78;62.84;102842.28;5053985;28;20087;-85
2021/11/15 08:35:40;;;;;;;3.55;2.30;;;;;;;11.79;62.81;102844.94;5054120;28;20472;-86
2021/11/15 08:40:51;;;;;;;0.22;0.22;;;;;;;11.85;62.96;102848.53;5079895;27;20444;-84
2021/11/15 08:43:19;;;;;;;1.05;0.98;;;;;;;11.87;62.75;102847.66;5060150;28;20528;-84
2021/11/15 08:45:46;;;;;;;0.20;0.20;;;;;;;11.88;62.78;102838.81;5053692;28;20460;-84
2021/11/15 08:48:13;;;;;;;0.82;0.82;;;;;;;11.85;62.45;102837.91;5056302;28;20057;-84
2021/11/15 08:50:39;;;;;;;0.30;0.30;;;;;;;11.87;62.78;102845.00;5057198;28;20033;-84
2021/11/15 08:53:06;;;;;;;0.20;0.20;;;;;;;11.88;62.59;102841.47;5051388;28;20025;-85
2021/11/15 08:55:33;;;;;;;0.10;0.10;;;;;;;11.89;63.18;102840.59;5049483;28;20039;-85
2021/11/15 08:58:00;;;;;;;1.55;0.80;;;;;;;11.88;62.34;102837.94;5050987;28;20025;-85
2021/11/15 09:00:27;;;;;;;0.10;0.10;;;;;;;11.89;62.75;102839.72;5059452;28;20032;-86
2021/11/15 09:02:53;;;;;;;0.25;0.25;;;;;;;11.86;63.05;102840.56;5053965;28;20118;-85
2021/11/15 09:05:20;;;;;;;0.40;0.40;;;;;;;11.87;62.35;102841.47;5052986;28;20021;-85
2021/11/15 09:07:47;;;;;;;1.35;0.90;;;;;;;11.90;62.61;102842.38;5048937;28;20452;-85
2021/11/15 09:10:15;;;;;;;0.75;0.75;;;;;;;11.91;62.99;102841.50;5048961;28;20048;-85
2021/11/15 09:12:43;;;;;;;1.85;0.63;;;;;;;11.94;63.01;102840.63;5051227;28;20048;-83
2021/11/15 09:15:13;;;;;;;0.40;0.40;;;;;;;11.91;62.52;102841.50;5052328;28;20709;-84
2021/11/15 09:17:41;;;;;;;1.05;1.05;;;;;;;11.95;63.11;102835.31;5058830;28;20029;-85
2021/11/15 09:20:09;;;;;;;0.55;0.55;;;;;;;11.96;63.27;102831.81;5048985;28;20029;-85
2021/11/15 09:22:36;;;;;;;0.15;0.15;;;;;;;11.96;62.76;102830.91;5048851;28;20120;-85
2021/11/15 09:25:04;;;;;;;0.20;0.20;;;;;;;11.99;63.25;102830.97;5051055;28;20028;-85
2021/11/15 09:27:30;;;;;;;0.10;0.10;;;;;;;12.01;62.72;102833.63;5050203;28;20040;-88
2021/11/15 09:29:59;;;;;;;0.32;0.32;;;;;;;12.02;63.00;102840.72;5050344;28;20025;-84
2021/11/15 09:32:25;;;;;;;0.10;0.10;;;;;;;12.02;63.00;102836.28;5053534;28;20063;-85
2021/11/15 09:34:52;;;;;;;0.25;0.25;;;;;;;11.98;62.95;102842.47;5051255;28;20039;-85
2021/11/15 09:37:20;;;;;;;1.08;0.88;;;;;;;12.04;62.82;102838.97;5052245;28;20508;-84
2021/11/15 09:39:50;;;;;;;0.25;0.25;;;;;;;12.02;63.07;102840.72;5048237;28;20519;-84
2021/11/15 09:42:17;;;;;;;0.10;0.10;;;;;;;12.01;62.59;102833.63;5048398;28;20025;-84
2021/11/15 09:44:44;;;;;;;0.10;0.10;;;;;;;12.00;63.27;102839.81;5049312;28;20500;-86
2021/11/15 09:47:10;;;;;;;0.10;0.10;;;;;;;11.97;62.47;102833.63;5052243;28;20028;-84
2021/11/15 09:49:37;;;;;;;0.10;0.10;;;;;;;12.00;62.60;102832.75;5054326;28;20485;-84
2021/11/15 09:52:06;;;;;;;0.38;0.38;;;;;;;11.92;62.35;102827.31;5035927;28;20392;-84
2021/11/15 09:54:34;;;;;;;4.80;1.95;;;;;;;11.93;62.51;102825.56;5038322;28;20692;-84
2021/11/15 09:57:10;;;;;;;0.10;0.10;;;;;;;11.93;61.95;102828.22;5035026;28;20034;-84
2021/11/15 09:59:37;;;;;;;0.10;0.10;;;;;;;11.93;62.14;102826.44;5039957;28;20364;-85
2021/11/15 10:02:04;;;;;;;0.57;0.57;;;;;;;11.95;63.11;102814.06;5048422;28;20025;-85
2021/11/15 10:04:30;;;;;;;0.22;0.22;;;;;;;11.88;62.71;102814.91;5041583;28;20036;-85
2021/11/15 10:06:57;;;;;;;0.55;0.55;;;;;;;11.79;62.72;102802.47;5045414;28;20112;-85
2021/11/15 10:09:34;;;;;;;0.30;0.30;;;;;;;11.88;62.48;102806.94;5037497;28;20021;-83
2021/11/15 10:12:11;;;;;;;2.72;1.00;;;;;;;11.88;62.31;102817.56;5036890;28;20164;-84
2021/11/15 10:14:57;;;;;;;0.63;0.63;;;;;;;11.85;62.27;102817.56;5039199;28;20087;-84
2021/11/15 10:17:38;;;;;;;0.20;0.20;;;;;;;11.97;62.57;102822.06;5041003;28;20076;-84
2021/11/15 10:20:05;;;;;;;1.98;0.55;;;;;;;11.96;62.36;102825.59;5033517;28;20039;-84
2021/11/15 10:22:32;;;;;;;1.45;1.08;;;;;;;11.98;62.59;102835.38;5038954;28;20029;-84
2021/11/15 10:24:58;;;;;;;0.20;0.20;;;;;;;12.01;62.63;102837.16;5042404;28;20068;-85
2021/11/15 10:27:28;;;;;;;0.10;0.10;;;;;;;12.03;62.21;102840.72;5035488;28;20037;-84
2021/11/15 10:29:54;;;;;;;0.35;0.35;;;;;;;12.03;61.92;102832.75;5036556;28;20026;-85
2021/11/15 10:32:29;;;;;;;0.10;0.10;;;;;;;12.06;62.13;102839.84;5036054;28;20447;-85
2021/11/15 10:34:59;;;;;;;0.10;0.10;;;;;;;12.08;62.38;102835.44;5034177;28;20064;-85
2021/11/15 10:37:28;;;;;;;0.45;0.45;;;;;;;12.07;62.13;102823.03;5036309;28;20032;-85
2021/11/15 10:42:38;;;;;;;0.73;0.50;;;;;;;12.09;62.60;102823.94;5070817;28;20469;-84
2021/11/15 10:50:53;;;;;;;11.82;1.23;;;;;;;11.98;63.04;102814.09;5047433;27;20426;-84
2021/11/15 10:53:27;;;;;;;0.40;0.40;;;;;;;11.93;62.57;102814.94;5041353;28;21807;-84
2021/11/15 10:56:19;;;;;;;0.13;0.13;;;;;;;11.99;62.47;102809.69;5028385;28;20033;-84
2021/11/15 10:58:50;;;;;;;0.20;0.20;;;;;;;11.96;62.33;102801.69;5028242;28;20030;-82
2021/11/15 11:01:17;;;;;;;0.50;0.50;;;;;;;11.92;62.54;102806.06;5025500;28;20033;-84
2021/11/15 11:03:44;;;;;;;0.25;0.25;;;;;;;11.93;62.34;102807.84;5029098;28;20376;-81
2021/11/15 11:06:12;;;;;;;0.08;0.08;;;;;;;11.93;62.09;102801.66;5028404;28;20083;-84
2021/11/15 11:08:46;;;;;;;0.10;0.10;;;;;;;11.95;62.54;102797.22;5026465;28;20034;-84
2021/11/15 11:19:30;;;;;;;0.45;0.45;;;;;;;11.90;62.64;102794.56;5071777;28;20427;-85
2021/11/15 11:25:11;;;;;;;0.10;0.10;;;;;;;11.82;61.95;102796.28;5047093;28;20489;-85
2021/11/15 11:27:43;;;;;;;1.17;0.63;;;;;;;11.84;62.93;102794.53;5025116;28;20465;-85
2021/11/15 11:30:10;;;;;;;;;;;;;;;11.96;62.11;102788.41;5027575;28;20025;-84
2021/11/15 11:32:36;;;;;;;0.10;0.10;;;;;;;11.82;62.62;102797.19;5021555;28;20352;-83
2021/11/15 11:35:04;;;;;;;0.50;0.50;;;;;;;11.82;62.49;102796.28;5024571;28;20048;-83
2021/11/15 11:37:31;;;;;;;1.10;1.02;;;;;;;11.76;62.63;102796.25;5024308;28;20025;-84
2021/11/15 11:40:01;;;;;;;1.65;0.80;;;;;;;11.78;62.75;102789.19;5023998;28;20030;-85
2021/11/15 11:42:27;;;;;;;0.80;0.80;;;;;;;11.80;63.13;102796.28;5026968;28;20030;-83
2021/11/15 11:44:54;;;;;;;0.40;0.40;;;;;;;11.83;63.02;102787.44;5023850;28;20492;-84
2021/11/15 11:47:26;;;;;;;0.10;0.10;;;;;;;11.85;62.84;102788.34;5026855;28;20054;-83
2021/11/15 11:49:55;;;;;;;0.40;0.40;;;;;;;11.83;62.89;102787.44;5023433;28;20026;-84